Stations météo

réclame
Mon MeteoGroup
Hohenpeißenberg, Allemagne (10962): Température de l'air & dewpoint: 09.08.2018 00:00:00 - 15.08.2018 00:00:00 (CEST)Hohenpeißenberg, Allemagne (10962): Température de l'air 5cm & Température de l'air -5cm: 09.08.2018 00:00:00 - 15.08.2018 00:00:00 (CEST)Hohenpeißenberg, Allemagne (10962): Température de l'air -20cm & Température de l'air -100cm: 09.08.2018 00:00:00 - 15.08.2018 00:00:00 (CEST)Hohenpeißenberg, Allemagne (10962): Vitesse du vent & gusts: 09.08.2018 00:00:00 - 15.08.2018 00:00:00 (CEST)Hohenpeißenberg, Allemagne (10962): Direction du vent: 09.08.2018 00:00:00 - 15.08.2018 00:00:00 (CEST)Hohenpeißenberg, Allemagne (10962): visibility: 09.08.2018 00:00:00 - 15.08.2018 00:00:00 (CEST)Hohenpeißenberg, Allemagne (10962): Ensoleillement: 09.08.2018 00:00:00 - 15.08.2018 00:00:00 (CEST)Hohenpeißenberg, Allemagne (10962): Quantités de précipitations: 09.08.2018 00:00:00 - 15.08.2018 00:00:00 (CEST)
Date & Time tt [°C] td [°C] tt 5cm [°C] tt -5cm [°C] tt -20cm [°C] tt -100cm [°C] ff [km/h] ff [knt] fx [km/h] fx [knt] dd vv [km] sd [min] rr [mm]
15.08.2018 00:00:00 - - - - - - - - - - - - - -
14.08.2018 23:00:00 14,9 11,4 14,4 17,6 19,9 19,0 10 5 18 10 NNW 28 0 0,0
14.08.2018 22:00:00 15,7 11,5 15,4 18,2 20,1 19,0 13 7 22 12 W 30 0 0,0
14.08.2018 21:00:00 15,8 11,5 14,9 19,1 20,3 19,0 16 9 24 13 WSW 40 19 0,0
14.08.2018 20:00:00 15,6 11,4 15,4 20,4 20,3 19,0 14 7 19 10 SSW 40 11 0,0
14.08.2018 19:00:00 16,3 11,5 16,2 21,3 20,3 19,0 15 8 24 13 SW 40 37 0,0
14.08.2018 18:00:00 16,2 11,3 16,8 21,9 20,1 19,0 16 8 26 14 SW 40 46 0,0
14.08.2018 17:00:00 16,6 11,7 18,7 21,4 20,0 19,0 16 9 28 15 SW 40 15 0,0
14.08.2018 16:00:00 16,2 12,7 16,8 21,6 19,7 19,0 11 6 26 14 W 40 5 0,0
14.08.2018 15:00:00 16,4 12,5 15,8 22,2 19,4 19,1 15 8 28 15 SW 40 21 0,0
14.08.2018 14:00:00 15,8 14,9 17,1 20,5 19,2 19,1 13 7 21 12 SW 50 0 2,0
14.08.2018 13:00:00 15,4 13,2 16,4 21,3 18,8 19,1 14 8 28 15 WSW 40 18 0,0
14.08.2018 12:00:00 15,8 14,2 17,6 20,1 18,5 19,1 16 8 29 16 SW 20 18 0,0
14.08.2018 11:00:00 14,5 13,9 15,9 18,2 18,4 19,1 13 7 24 13 SW 10 0 0,0
14.08.2018 10:00:00 14,0 13,6 15,1 16,9 18,4 19,1 12 6 19 10 WSW 10 0 0,1
14.08.2018 09:00:00 13,1 12,9 13,6 16,0 18,6 19,1 10 5 24 13 W 0,1 0 1,3
14.08.2018 08:00:00 12,7 12,5 13,0 15,6 18,8 19,1 14 8 30 16 W 0,1 0 2,1
14.08.2018 07:00:00 12,8 11,5 12,4 15,8 19,1 19,1 15 8 30 16 NW 5 0 0,3
14.08.2018 06:00:00 13,5 11,9 12,7 15,8 19,3 19,1 22 12 37 20 W 50 0 0,0
14.08.2018 05:00:00 13,3 11,9 12,6 16,1 19,6 19,1 25 14 36 19 WSW 70 0 0,0
14.08.2018 04:00:00 13,3 12,3 12,9 16,6 19,9 19,1 25 14 36 19 WSW 54 0 0,0
14.08.2018 03:00:00 13,4 12,7 13,3 17,0 20,2 19,1 23 13 41 22 WSW 28 0 2,0
14.08.2018 02:00:00 14,3 12,9 14,2 17,3 20,4 19,1 27 14 47 26 WSW 60 0 0,0
14.08.2018 01:00:00 14,6 13,0 14,1 17,8 20,7 19,1 22 12 35 19 WSW 43 0 0,0
14.08.2018 00:00:00 15,1 13,6 14,7 18,3 21,0 19,1 18 10 34 18 WSW 35 0 0,0
13.08.2018 23:00:00 15,9 13,8 15,1 18,8 21,3 19,1 18 10 26 14 WSW 30 0 0,0
13.08.2018 22:00:00 14,9 14,2 15,0 19,2 21,6 19,1 14 8 21 11 SW 30 0 0,0
13.08.2018 21:00:00 14,3 13,6 14,2 19,7 22,0 19,1 13 7 21 11 SSW 30 0 0,0
13.08.2018 20:00:00 14,8 13,7 14,8 20,5 22,3 19,1 15 8 20 11 SE 30 0 0,1
13.08.2018 19:00:00 15,1 14,8 15,7 20,9 22,7 19,1 13 7 19 10 S 18 0 0,0
13.08.2018 18:00:00 15,2 14,9 15,8 21,0 23,2 19,1 15 8 36 19 WSW 18 0 1,4
13.08.2018 17:00:00 14,6 14,3 14,8 22,2 23,5 19,1 21 11 41 22 W 0,1 0 5,9
13.08.2018 16:00:00 14,9 14,7 15,1 25,3 23,5 19,1 24 13 69 37 W 15 0 8,5
13.08.2018 15:00:00 22,5 12,5 23,5 29,2 23,0 19,1 10 5 21 12 WNW 40 2 0,0
13.08.2018 14:00:00 23,2 11,7 24,8 31,0 22,3 19,1 10 5 25 14 WNW 40 46 0,0
13.08.2018 13:00:00 24,6 13,4 29,1 29,4 21,5 19,1 11 6 25 14 W 70 60 0,0
13.08.2018 12:00:00 23,9 11,9 27,4 27,3 20,9 19,1 13 7 25 13 W 70 60 0,0
13.08.2018 11:00:00 22,8 12,0 24,9 24,6 20,5 19,1 15 8 29 16 W 70 38 0,0
13.08.2018 10:00:00 24,0 11,4 24,3 23,1 20,2 19,2 3 2 10 5 S 70 48 0,0
13.08.2018 09:00:00 24,6 11,8 24,9 19,9 20,2 19,2 7 4 10 6 SSE 70 60 0,0
13.08.2018 08:00:00 22,2 9,9 21,4 18,1 20,4 19,2 9 5 11 6 SSE 70 60 0,0
13.08.2018 07:00:00 19,4 10,4 17,0 17,8 20,7 19,2 9 5 16 9 S 70 25 0,0
13.08.2018 06:00:00 19,9 10,5 16,1 18,1 21,0 19,2 9 5 14 7 S 70 0 0,0
13.08.2018 05:00:00 19,3 10,9 16,0 18,6 21,3 19,2 10 5 11 6 S 70 0 0,0
13.08.2018 04:00:00 19,2 10,9 16,2 19,1 21,6 19,2 9 5 16 9 SSW 70 0 0,0
13.08.2018 03:00:00 18,9 11,4 16,8 19,6 22,0 19,2 11 6 20 11 S 70 0 0,0
13.08.2018 02:00:00 18,4 11,8 16,8 20,3 22,3 19,2 14 7 21 11 SSW 70 0 0,0
13.08.2018 01:00:00 19,4 10,8 17,2 21,0 22,7 19,3 10 5 13 7 SSW 70 0 0,0
13.08.2018 00:00:00 19,9 11,9 17,7 21,8 23,1 19,3 9 5 11 6 WSW 70 0 0,0
12.08.2018 23:00:00 20,6 11,4 17,9 22,7 23,4 19,3 8 4 10 5 SW 70 0 0,0
12.08.2018 22:00:00 22,0 11,2 19,3 23,8 23,7 19,3 6 3 10 6 ESE 70 0 0,0
12.08.2018 21:00:00 22,2 11,6 20,4 25,3 23,9 19,3 8 5 12 6 E 70 28 0,0
12.08.2018 20:00:00 22,7 11,2 22,6 27,3 23,9 19,3 5 3 10 6 ENE 75 60 0,0
12.08.2018 19:00:00 23,4 11,4 24,8 29,1 23,6 19,3 6 4 18 10 E 80 60 0,0
12.08.2018 18:00:00 23,7 12,2 26,9 30,7 23,1 19,4 9 5 15 8 NNE 82 59 0,0
12.08.2018 17:00:00 24,4 12,5 29,0 31,4 22,5 19,4 9 5 14 8 WNW 80 60 0,0
12.08.2018 16:00:00 23,7 11,6 28,2 31,1 21,7 19,4 6 4 21 11 NNE 75 60 0,0
12.08.2018 15:00:00 22,6 11,2 26,7 30,2 20,8 19,4 11 6 18 10 NNE 70 60 0,0
12.08.2018 14:00:00 21,9 11,7 27,0 28,5 19,9 19,4 9 5 17 9 N 60 60 0,0
12.08.2018 13:00:00 20,1 11,4 24,7 26,2 19,2 19,4 9 5 16 8 ENE 60 60 0,0
12.08.2018 12:00:00 18,9 10,7 23,1 23,6 18,6 19,4 10 5 16 9 NE 60 60 0,0
12.08.2018 11:00:00 18,4 10,0 22,2 21,2 18,1 19,4 9 5 19 10 ENE 60 60 0,0
12.08.2018 10:00:00 17,3 10,5 19,5 18,9 17,8 19,4 17 9 25 14 SSE 60 60 0,0
12.08.2018 09:00:00 17,1 10,1 17,9 16,5 17,8 19,5 6 3 13 7 ESE 60 60 0,0
12.08.2018 08:00:00 16,1 8,9 16,3 14,5 18,0 19,5 7 4 16 9 ESE 60 60 0,0
12.08.2018 07:00:00 14,6 8,7 12,7 14,1 18,2 19,5 11 6 17 9 ESE 60 20 0,0
12.08.2018 06:00:00 14,3 8,6 12,6 14,3 18,5 19,5 12 6 16 9 ESE 60 0 0,0
12.08.2018 05:00:00 14,2 8,4 12,3 14,6 18,8 19,5 12 7 17 9 ESE 70 0 0,0
12.08.2018 04:00:00 15,0 8,2 12,9 14,9 19,1 19,5 11 6 14 7 ESE 70 0 0,0
12.08.2018 03:00:00 15,5 7,9 13,3 15,3 19,4 19,5 10 5 13 7 ESE 70 0 0,0
12.08.2018 02:00:00 15,8 7,1 13,7 15,7 19,8 19,5 10 6 14 8 ESE 70 0 0,0
12.08.2018 01:00:00 16,0 6,6 13,9 16,2 20,2 19,6 9 5 12 6 ENE 70 0 0,0
12.08.2018 00:00:00 16,2 5,4 12,7 16,9 20,6 19,6 6 3 9 5 ENE 70 0 0,0
11.08.2018 23:00:00 15,9 7,0 12,5 17,6 21,0 19,6 3 2 10 6 ESE 80 0 0,0
11.08.2018 22:00:00 17,4 5,2 14,5 18,6 21,3 19,6 8 4 14 7 WNW 80 0 0,0
11.08.2018 21:00:00 17,5 5,1 15,3 20,0 21,6 19,6 11 6 17 9 W 82 20 0,0
11.08.2018 20:00:00 18,5 5,9 18,1 21,8 21,6 19,6 10 5 20 11 W 82 60 0,0
11.08.2018 19:00:00 19,5 6,7 20,7 23,3 21,5 19,6 12 6 20 11 W 82 60 0,0
11.08.2018 18:00:00 19,5 8,0 21,3 24,3 21,3 19,6 8 4 21 11 WNW 80 57 0,0
11.08.2018 17:00:00 20,0 8,9 22,1 24,5 21,0 19,6 10 6 27 14 WSW 80 52 0,0
11.08.2018 16:00:00 18,7 8,9 21,0 23,8 20,6 19,6 12 7 29 15 W 70 59 0,0
11.08.2018 15:00:00 18,9 9,5 20,7 23,7 20,2 19,7 13 7 24 13 W 55 50 0,0
11.08.2018 14:00:00 18,6 8,6 20,0 23,6 19,8 19,7 9 5 21 11 W 40 47 0,0
11.08.2018 13:00:00 17,9 9,4 20,1 22,9 19,2 19,7 9 5 22 12 W 40 48 0,0
11.08.2018 12:00:00 17,0 8,1 19,9 21,6 18,8 19,7 12 6 26 14 W 40 55 0,0
11.08.2018 11:00:00 16,8 9,8 19,4 19,8 18,4 19,7 13 7 28 15 W 40 60 0,0
11.08.2018 10:00:00 15,7 9,9 17,8 17,6 18,3 19,7 18 10 27 15 W 60 54 0,0
11.08.2018 09:00:00 13,8 10,1 14,1 15,6 18,4 19,7 15 8 30 16 WSW 60 40 0,0
11.08.2018 08:00:00 13,0 9,2 12,5 14,6 18,6 19,7 19 11 28 15 WSW 60 42 0,0
11.08.2018 07:00:00 13,9 8,5 12,6 14,3 18,8 19,7 13 7 21 12 W 60 17 0,0
11.08.2018 06:00:00 13,9 8,2 12,2 14,6 19,1 19,7 13 7 18 10 W 60 0 0,0
11.08.2018 05:00:00 14,5 7,6 12,5 14,9 19,4 19,7 10 5 13 7 WSW 70 0 0,0
11.08.2018 04:00:00 14,3 7,7 12,0 15,2 19,7 19,7 11 6 12 7 SW 70 0 0,0
11.08.2018 03:00:00 14,2 8,8 12,2 15,6 20,0 19,7 7 4 12 7 SW 70 0 0,0
11.08.2018 02:00:00 13,9 8,1 11,6 16,1 20,3 19,7 6 3 12 6 S 70 0 0,0
11.08.2018 01:00:00 14,1 9,2 12,1 16,5 20,7 19,7 0 0 6 4 N 70 0 0,0
11.08.2018 00:00:00 15,3 5,3 12,5 17,1 21,0 19,7 3 2 8 4 NNE 70 0 0,0
10.08.2018 23:00:00 14,5 8,4 12,6 17,8 21,3 19,7 6 3 12 7 SE 35 0 0,0
10.08.2018 22:00:00 13,2 11,5 12,3 18,7 21,5 19,7 9 5 16 8 SSE 35 0 0,0
10.08.2018 21:00:00 13,1 11,4 13,2 19,5 21,7 19,7 11 6 16 8 SE 35 1 0,0
10.08.2018 20:00:00 13,3 12,4 14,0 20,6 21,8 19,7 9 5 15 8 ESE 20 16 0,0
10.08.2018 19:00:00 13,8 12,1 14,8 21,3 21,8 19,7 9 5 16 9 SE 25 1 0,0
10.08.2018 18:00:00 14,4 12,1 15,7 21,8 21,7 19,7 7 4 13 7 SE 12 0 0,0
10.08.2018 17:00:00 14,6 12,1 15,6 21,7 21,5 19,7 7 4 10 6 SSE 50 0 0,0
10.08.2018 16:00:00 14,3 10,3 17,0 21,5 21,4 19,7 4 2 10 6 NNE 25 0 0,0
10.08.2018 15:00:00 13,2 10,4 15,1 20,6 21,3 19,6 7 4 12 6 NNW 25 0 0,0
10.08.2018 14:00:00 13,3 11,5 14,7 20,1 21,2 19,6 5 3 14 8 WNW 25 0 0,0
10.08.2018 13:00:00 12,9 11,6 14,5 19,0 21,4 19,6 9 5 20 11 WSW 9 0 0,0
10.08.2018 12:00:00 11,3 10,9 12,2 18,0 21,6 19,6 14 7 23 13 WSW 0,6 0 0,9
10.08.2018 11:00:00 11,0 10,7 11,8 17,8 21,9 19,6 14 8 24 13 WSW 0,1 0 1,7
10.08.2018 10:00:00 11,5 11,3 12,0 17,8 22,3 19,6 13 7 34 19 WSW 0,1 0 1,0
10.08.2018 09:00:00 11,8 11,6 12,3 18,2 22,7 19,6 21 11 37 20 WSW 0,2 0 0,7
10.08.2018 08:00:00 12,3 12,1 12,6 18,7 23,0 19,6 16 9 40 22 W 0,3 0 3,5
10.08.2018 07:00:00 13,9 13,6 14,2 19,5 23,4 19,6 13 7 30 16 WSW 0,4 0 0,7
10.08.2018 06:00:00 14,5 13,6 14,6 19,9 23,8 19,6 15 8 24 13 W 30 0 0,0
10.08.2018 05:00:00 14,8 13,9 14,8 20,3 24,2 19,6 15 8 26 14 W 21 0 0,0
10.08.2018 04:00:00 14,7 14,2 15,0 20,7 24,7 19,6 15 8 25 13 SW 4,9 0 0,2
10.08.2018 03:00:00 14,7 14,0 14,6 21,2 25,2 19,6 18 10 27 15 W 10 0 0,5
10.08.2018 02:00:00 14,6 13,9 14,6 22,1 25,8 19,6 19 10 29 16 WSW 10 0 1,7
10.08.2018 01:00:00 15,0 13,5 14,6 23,4 26,3 19,6 18 10 30 16 W 19 0 1,1
10.08.2018 00:00:00 15,6 13,4 14,7 25,1 26,8 19,6 16 9 30 16 W 3,4 0 0,9
09.08.2018 23:00:00 17,8 12,3 17,9 26,0 27,2 19,6 16 9 32 18 W 20 0 0,0
09.08.2018 22:00:00 18,3 13,0 18,2 27,1 27,6 19,6 15 8 48 26 WSW 20 0 0,0
09.08.2018 21:00:00 19,0 13,5 18,9 28,7 28,0 19,6 29 16 67 36 WSW 18 0 0,0
09.08.2018 20:00:00 22,9 12,5 23,0 30,9 28,0 19,6 29 16 56 30 WSW 20 13 0,0
09.08.2018 19:00:00 26,6 12,5 27,6 33,1 27,9 19,6 19 11 55 30 WSW 18 19 0,0
09.08.2018 18:00:00 28,7 9,4 32,2 34,9 27,4 19,6 10 6 21 11 NNW 80 60 0,0
09.08.2018 17:00:00 30,2 11,6 33,8 35,3 26,9 19,6 8 4 24 13 SSW 80 60 0,0
09.08.2018 16:00:00 29,2 10,0 32,9 34,8 26,3 19,6 9 5 18 10 W 80 53 0,0
09.08.2018 15:00:00 28,1 11,2 32,3 34,1 25,6 19,5 8 5 19 11 NE 80 52 0,0
09.08.2018 14:00:00 27,6 12,1 33,4 33,5 24,8 19,5 9 5 15 8 NE 80 60 0,0
09.08.2018 13:00:00 26,9 13,5 32,6 31,5 24,1 19,5 7 4 15 8 NNE 80 60 0,0
09.08.2018 12:00:00 25,2 15,5 29,5 29,7 23,5 19,5 7 4 13 7 NNE 80 60 0,0
09.08.2018 11:00:00 25,2 15,9 28,5 26,4 23,2 19,5 5 3 10 5 S 80 60 0,0
09.08.2018 10:00:00 21,8 14,2 24,6 24,6 23,1 19,5 6 4 10 6 NNW 80 60 0,0
09.08.2018 09:00:00 21,0 12,9 22,4 22,6 23,1 19,5 7 4 9 5 W 80 60 0,0
09.08.2018 08:00:00 21,6 12,5 22,4 21,0 23,3 19,5 2 1 12 6 NNE 80 60 0,0
09.08.2018 07:00:00 20,8 12,8 18,1 20,8 23,6 19,5 6 4 11 6 SE 80 29 0,0
09.08.2018 06:00:00 18,7 12,4 16,9 21,1 23,9 19,5 9 5 12 7 S 70 0 0,0
09.08.2018 05:00:00 19,0 13,2 17,7 21,6 24,2 19,5 8 4 12 6 SSE 46 0 0,0
09.08.2018 04:00:00 20,2 12,7 18,4 21,8 24,6 19,5 6 4 10 5 WSW 51 0 0,0
09.08.2018 03:00:00 18,0 13,8 16,5 22,3 25,0 19,5 9 5 13 7 S 46 0 0,0
09.08.2018 02:00:00 19,4 14,1 18,3 23,0 25,4 19,5 9 5 13 7 E 49 0 0,0
09.08.2018 01:00:00 20,0 13,9 18,6 23,6 25,9 19,5 3 2 15 8 ESE 50 0 0,0
09.08.2018 00:00:00 20,7 12,6 19,2 24,1 26,3 19,5 12 6 28 15 SE 61 0 0,0

tt = Température de l'air
td = dewpoint
tt 5cm = Température de l'air 5cm
tt -5cm = Température de l'air -5cm
tt -20cm = Température de l'air -20cm
tt -100cm = Température de l'air -100cm
ff = Vitesse du vent
fx = gusts
dd = Direction du vent
vv = visibility
sd = Ensoleillement
rr = Quantités de précipitations

stations d'obs. à proximité